Time;durP1;ratioP1;P1;durP2;ratioP2;P2;SDS_P1;SDS_P2;PMS_P1;PMS_P2;Temp;Humidity;BMP_temperature;BMP_pressure;BME280_temperature;BME280_humidity;BME280_pressure;Samples;Min_cycle;Max_cycle;Signal;HPM_P1;HPM_P2
2022/07/03 07:07:53;;;;;;;4.65;3.85;;;20.90;99.90;;;;;;5108176;27;20376;-30
2022/07/03 07:10:18;;;;;;;3.67;3.25;;;20.80;99.90;;;;;;5108630;28;20101;-30
2022/07/03 07:12:44;;;;;;;4.38;3.20;;;20.90;99.90;;;;;;5108408;28;20425;-32
2022/07/03 07:15:10;;;;;;;3.53;3.22;;;21.00;99.90;;;;;;5107703;28;20043;-30
2022/07/03 07:17:36;;;;;;;3.25;2.75;;;21.10;99.90;;;;;;5108449;28;20134;-31
2022/07/03 07:20:02;;;;;;;3.55;3.17;;;21.20;99.90;;;;;;5108209;28;20040;-31
2022/07/03 07:22:28;;;;;;;3.13;2.78;;;21.30;99.90;;;;;;5108404;28;20036;-30
2022/07/03 07:24:53;;;;;;;4.38;3.60;;;21.50;99.90;;;;;;5107922;28;20032;-28
2022/07/03 07:27:19;;;;;;;3.58;3.25;;;21.50;99.90;;;;;;5105145;28;20444;-29
2022/07/03 07:29:45;;;;;;;3.85;3.10;;;21.70;99.90;;;;;;5108775;28;20471;-30
2022/07/03 07:32:10;;;;;;;4.10;3.10;;;21.60;99.90;;;;;;5107596;28;20028;-29
2022/07/03 07:34:36;;;;;;;3.83;2.60;;;21.70;99.90;;;;;;5101531;28;20074;-29
2022/07/03 07:37:02;;;;;;;3.10;2.80;;;21.80;99.90;;;;;;5105120;28;20577;-29
2022/07/03 07:39:28;;;;;;;5.90;2.17;;;21.80;99.90;;;;;;5106981;28;20130;-28
2022/07/03 07:41:53;;;;;;;3.22;1.77;;;21.90;99.90;;;;;;5100134;28;20055;-29
2022/07/03 07:44:19;;;;;;;2.75;1.70;;;21.90;99.90;;;;;;5097455;28;20111;-29
2022/07/03 07:46:44;;;;;;;2.10;1.90;;;21.90;99.90;;;;;;5100911;28;20032;-30
2022/07/03 07:49:10;;;;;;;3.97;1.90;;;22.00;99.70;;;;;;5105512;28;20044;-32
2022/07/03 07:51:36;;;;;;;2.28;1.70;;;22.00;99.30;;;;;;5103977;28;20028;-29
2022/07/03 07:54:02;;;;;;;3.35;2.10;;;22.00;97.80;;;;;;5107011;28;20313;-30
2022/07/03 07:56:27;;;;;;;2.90;2.20;;;22.10;98.20;;;;;;5104674;28;20042;-30
2022/07/03 07:58:56;;;;;;;3.22;2.10;;;22.20;97.80;;;;;;5104088;28;20036;-29
2022/07/03 08:06:53;;;;;;;3.25;2.60;;;22.60;98.10;;;;;;5103534;28;20039;-30
2022/07/03 08:09:19;;;;;;;3.17;2.33;;;22.70;98.10;;;;;;5088410;28;20608;-30
2022/07/03 08:11:47;;;;;;;4.32;3.03;;;22.80;98.80;;;;;;5092095;28;20531;-31
2022/07/03 08:14:13;;;;;;;2.88;2.60;;;22.90;97.60;;;;;;5089523;28;20032;-30
2022/07/03 08:16:42;;;;;;;3.22;2.50;;;23.10;97.40;;;;;;5087169;28;20043;-30
2022/07/03 08:19:08;;;;;;;4.03;3.10;;;23.40;98.50;;;;;;5081813;28;20082;-30
2022/07/03 08:21:34;;;;;;;3.05;2.75;;;23.50;96.20;;;;;;5092937;28;20456;-32
2022/07/03 08:23:59;;;;;;;2.95;2.40;;;23.70;94.90;;;;;;5092246;28;20101;-32
2022/07/03 08:26:28;;;;;;;3.05;2.83;;;23.90;96.30;;;;;;5092356;28;20044;-30
2022/07/03 08:28:54;;;;;;;4.22;2.42;;;24.00;94.00;;;;;;5091744;28;20146;-30
2022/07/03 08:31:20;;;;;;;3.20;2.30;;;24.20;93.30;;;;;;5089910;28;20631;-30
2022/07/03 08:33:45;;;;;;;2.72;1.77;;;24.20;91.40;;;;;;5092766;28;20039;-30
2022/07/03 08:36:11;;;;;;;3.35;1.70;;;24.30;90.50;;;;;;5084570;28;20097;-31
2022/07/03 08:38:37;;;;;;;2.10;1.90;;;24.30;87.20;;;;;;5089709;28;20089;-31
2022/07/03 08:41:04;;;;;;;1.90;1.75;;;24.50;87.60;;;;;;5092222;28;20032;-29
2022/07/03 08:43:30;;;;;;;1.98;1.42;;;24.60;83.40;;;;;;5090947;28;20124;-30
2022/07/03 08:45:58;;;;;;;1.95;1.65;;;24.60;78.80;;;;;;5077800;28;20044;-31
2022/07/03 08:48:25;;;;;;;4.47;1.63;;;24.60;76.40;;;;;;5089790;28;20118;-30
2022/07/03 08:50:52;;;;;;;2.25;1.85;;;24.70;76.20;;;;;;5087433;28;20044;-30
2022/07/03 08:53:18;;;;;;;2.83;2.22;;;24.70;75.00;;;;;;5083552;28;20059;-30
2022/07/03 08:55:45;;;;;;;3.05;1.90;;;24.90;76.10;;;;;;5091850;28;20065;-30
2022/07/03 08:58:13;;;;;;;2.10;1.92;;;24.90;74.90;;;;;;5084151;28;20032;-31
2022/07/03 09:00:39;;;;;;;3.10;2.17;;;24.90;76.90;;;;;;5090406;28;20077;-30
2022/07/03 09:03:10;;;;;;;1.90;1.65;;;25.00;79.70;;;;;;5083206;28;20067;-32
2022/07/03 09:05:36;;;;;;;2.83;1.85;;;25.30;81.60;;;;;;5083674;28;20417;-33
2022/07/03 09:08:02;;;;;;;3.15;1.75;;;25.10;82.10;;;;;;5083180;28;20051;-33
2022/07/03 09:10:28;;;;;;;3.65;1.90;;;25.30;85.50;;;;;;5083465;28;20082;-33
2022/07/03 09:12:55;;;;;;;3.65;2.15;;;25.20;81.70;;;;;;5091517;28;20036;-33
2022/07/03 09:15:22;;;;;;;2.60;2.40;;;25.10;81.20;;;;;;5087993;28;20047;-32
2022/07/03 09:17:58;;;;;;;3.83;1.73;;;25.20;81.20;;;;;;5082718;28;20036;-36
2022/07/03 09:20:32;;;;;;;2.28;1.67;;;25.40;79.30;;;;;;5080536;28;20036;-33
2022/07/03 09:23:19;;;;;;;2.25;1.30;;;25.20;73.60;;;;;;5088614;28;20032;-33
2022/07/03 09:25:51;;;;;;;2.80;1.45;;;25.00;67.20;;;;;;5083629;28;20531;-32
2022/07/03 09:28:18;;;;;;;2.67;1.20;;;24.80;69.40;;;;;;5079472;28;20036;-31
2022/07/03 09:31:01;;;;;;;1.65;1.10;;;24.90;72.50;;;;;;5092503;28;20123;-29
2022/07/03 09:33:27;;;;;;;2.83;1.25;;;25.10;70.50;;;;;;5092170;28;20040;-29
2022/07/03 09:35:54;;;;;;;2.05;1.40;;;25.20;71.10;;;;;;5092181;28;20505;-31
2022/07/03 09:38:21;;;;;;;2.22;1.38;;;25.40;69.30;;;;;;5090618;28;20412;-29
2022/07/03 09:40:55;;;;;;;1.70;1.00;;;25.80;70.10;;;;;;5092252;28;20483;-29
2022/07/03 09:43:25;;;;;;;1.77;0.90;;;26.10;67.60;;;;;;5091890;28;20090;-29
2022/07/03 09:46:02;;;;;;;2.20;1.40;;;25.90;63.90;;;;;;5090464;28;20052;-31
2022/07/03 09:48:33;;;;;;;1.55;1.20;;;26.00;63.40;;;;;;5091892;28;20036;-30
2022/07/03 09:51:28;;;;;;;1.67;1.25;;;26.20;61.20;;;;;;5090230;28;20115;-30
2022/07/03 09:54:03;;;;;;;2.65;1.30;;;26.50;58.20;;;;;;5091587;28;20126;-31
2022/07/03 09:56:34;;;;;;;2.88;1.33;;;26.90;62.10;;;;;;5091699;28;20116;-29
2022/07/03 09:59:04;;;;;;;1.65;1.20;;;27.10;60.90;;;;;;5091960;28;20038;-30
2022/07/03 10:01:30;;;;;;;1.85;1.23;;;27.20;59.50;;;;;;5091533;28;20056;-30
2022/07/03 10:04:10;;;;;;;1.50;0.80;;;27.30;58.10;;;;;;5091677;28;20081;-30
2022/07/03 10:07:08;;;;;;;1.42;1.10;;;27.20;56.70;;;;;;5091711;28;20044;-31
2022/07/03 10:09:34;;;;;;;1.63;1.00;;;27.20;55.10;;;;;;5079129;28;20105;-30
2022/07/03 10:12:02;;;;;;;1.63;1.20;;;27.20;55.90;;;;;;5091700;28;20594;-29
2022/07/03 10:14:31;;;;;;;2.65;0.93;;;26.80;55.60;;;;;;5091478;28;20502;-30
2022/07/03 10:16:59;;;;;;;1.95;1.05;;;26.00;54.30;;;;;;5091503;28;20043;-29
2022/07/03 10:19:29;;;;;;;1.23;1.00;;;25.70;55.50;;;;;;5090958;28;20040;-29
2022/07/03 10:21:55;;;;;;;1.90;0.90;;;25.50;55.80;;;;;;5091844;28;20043;-29
2022/07/03 10:24:23;;;;;;;2.75;1.23;;;25.60;56.40;;;;;;5073265;28;20047;-29
2022/07/03 10:26:50;;;;;;;1.85;1.00;;;26.00;57.10;;;;;;5088511;28;20044;-29
2022/07/03 10:29:16;;;;;;;1.85;0.95;;;26.60;57.40;;;;;;5104480;22;20045;-81
2022/07/03 10:31:48;;;;;;;2.05;1.15;;;27.00;57.70;;;;;;5058568;28;20032;-81
2022/07/03 10:34:23;;;;;;;5.38;1.15;;;27.40;54.70;;;;;;5073516;28;20037;-83
2022/07/03 10:37:01;;;;;;;1.20;0.80;;;27.80;54.40;;;;;;5069677;28;20037;-80
2022/07/03 10:44:45;;;;;;;1.08;0.80;;;27.50;49.20;;;;;;5100827;28;20139;-82
2022/07/03 10:45:34;;;;;;;1.75;0.80;;;27.60;52.20;;;;;;5087759;28;20563;-81
2022/07/03 10:48:00;;;;;;;0.90;0.90;;;27.80;51.70;;;;;;5096295;28;20078;-80
2022/07/03 10:50:26;;;;;;;2.08;1.20;;;28.00;52.10;;;;;;5086594;28;20070;-83
2022/07/03 10:52:55;;;;;;;1.13;1.00;;;28.30;50.20;;;;;;5102037;28;20085;-86
2022/07/03 10:55:21;;;;;;;1.45;0.88;;;28.40;49.60;;;;;;5082828;28;20063;-86
2022/07/03 10:58:07;;;;;;;1.52;1.05;;;28.00;49.40;;;;;;5074363;28;20131;-85
2022/07/03 11:00:53;;;;;;;2.20;0.90;;;27.50;48.00;;;;;;5083434;28;20047;-85
2022/07/03 11:03:57;;;;;;;1.58;0.93;;;27.40;48.80;;;;;;5077477;28;20058;-85
2022/07/03 11:06:42;;;;;;;1.35;0.90;;;27.10;49.30;;;;;;5085806;28;20055;-82
2022/07/03 11:09:10;;;;;;;1.00;0.90;;;26.90;50.20;;;;;;5064033;28;20567;-81
2022/07/03 11:11:55;;;;;;;3.35;1.10;;;26.80;50.50;;;;;;5066241;28;20070;-79
2022/07/03 11:14:30;;;;;;;2.15;0.98;;;26.60;50.70;;;;;;5092490;28;20715;-81
2022/07/03 11:17:19;;;;;;;1.33;1.00;;;26.80;51.60;;;;;;5093299;28;20079;-81
2022/07/03 11:20:23;;;;;;;4.68;3.30;;;27.10;51.60;;;;;;5088168;28;20047;-81
2022/07/03 11:22:47;;;;;;;6.97;6.35;;;27.60;52.30;;;;;;5090779;28;20071;-82
2022/07/03 11:25:14;;;;;;;7.38;6.28;;;27.90;50.70;;;;;;5102268;28;20078;-81
2022/07/03 11:27:40;;;;;;;4.38;3.97;;;28.00;51.60;;;;;;5076771;28;20040;-81
2022/07/03 11:30:06;;;;;;;1.98;1.83;;;27.80;50.80;;;;;;5093715;28;20035;-81
2022/07/03 11:32:45;;;;;;;4.65;3.63;;;27.30;50.70;;;;;;5076592;28;20039;-83
2022/07/03 11:35:44;;;;;;;2.20;1.13;;;27.20;50.90;;;;;;5077752;28;20102;-80
2022/07/03 11:38:10;;;;;;;1.50;0.90;;;27.50;51.10;;;;;;5076755;28;20048;-81
2022/07/03 11:40:39;;;;;;;2.33;1.85;;;27.80;49.70;;;;;;5080579;28;20044;-81
2022/07/03 11:43:05;;;;;;;2.40;1.17;;;28.30;50.30;;;;;;5076161;28;20507;-81
2022/07/03 11:45:32;;;;;;;2.55;1.20;;;28.90;50.20;;;;;;5084184;28;20056;-81
2022/07/03 11:47:58;;;;;;;1.30;1.20;;;28.90;49.10;;;;;;5095179;28;20036;-81
2022/07/03 11:51:03;;;;;;;1.27;1.00;;;28.80;50.00;;;;;;5093005;28;20118;-81
2022/07/03 11:53:34;;;;;;;2.40;1.00;;;28.90;49.70;;;;;;5053074;28;20085;-81
2022/07/03 11:56:03;;;;;;;2.85;1.00;;;29.40;49.80;;;;;;5073486;28;20037;-81
2022/07/03 11:58:44;;;;;;;1.27;0.80;;;29.40;49.30;;;;;;5093328;28;20043;-81
2022/07/03 12:01:22;;;;;;;0.98;0.90;;;29.60;47.70;;;;;;5094860;28;20042;-81
2022/07/03 12:03:49;;;;;;;8.30;1.75;;;29.90;47.70;;;;;;5077599;28;20050;-81
2022/07/03 12:06:16;;;;;;;1.77;0.80;;;30.30;47.00;;;;;;5096031;28;20050;-82
2022/07/03 12:08:46;;;;;;;2.50;1.17;;;30.30;46.50;;;;;;5079290;28;20040;-81
2022/07/03 12:11:14;;;;;;;0.93;0.60;;;30.20;45.70;;;;;;5100182;28;20032;-82
2022/07/03 12:13:40;;;;;;;1.20;0.85;;;30.00;44.00;;;;;;5086457;28;20632;-83
2022/07/03 12:16:08;;;;;;;0.80;0.70;;;29.80;45.70;;;;;;5090227;28;20063;-82
2022/07/03 12:18:53;;;;;;;1.23;0.80;;;30.00;45.60;;;;;;5088260;28;20060;-83
2022/07/03 12:21:21;;;;;;;1.73;0.80;;;29.60;44.80;;;;;;5066100;28;20453;-83
2022/07/03 12:23:49;;;;;;;0.60;0.60;;;29.70;45.40;;;;;;5079467;28;20422;-83
2022/07/03 12:26:33;;;;;;;1.77;0.80;;;29.90;45.00;;;;;;5081659;28;20044;-82
2022/07/03 12:29:03;;;;;;;1.50;0.70;;;30.00;43.70;;;;;;5081286;28;20024;-83
2022/07/03 12:31:30;;;;;;;1.15;0.80;;;30.10;44.40;;;;;;5083447;28;20036;-83
2022/07/03 12:33:57;;;;;;;2.83;0.80;;;30.10;44.30;;;;;;5073607;28;20044;-83
2022/07/03 12:36:23;;;;;;;1.90;0.77;;;29.80;44.50;;;;;;5056964;28;20043;-82
2022/07/03 12:38:52;;;;;;;1.15;0.80;;;29.70;44.10;;;;;;5074987;28;20409;-83
2022/07/03 12:41:18;;;;;;;1.33;0.75;;;29.80;45.50;;;;;;5065318;28;20044;-82
2022/07/03 12:43:47;;;;;;;1.23;0.77;;;30.30;45.80;;;;;;5084832;28;20118;-82
2022/07/03 12:46:20;;;;;;;1.08;0.60;;;30.10;44.30;;;;;;5059341;28;20056;-82
2022/07/03 12:48:56;;;;;;;2.45;1.00;;;29.60;44.70;;;;;;5081083;28;20035;-81
2022/07/03 12:51:44;;;;;;;2.03;1.00;;;29.00;45.30;;;;;;5078044;28;20060;-82
2022/07/03 12:54:22;;;;;;;3.55;1.30;;;28.20;46.50;;;;;;5079575;28;20513;-81
2022/07/03 13:00:12;;;;;;;1.25;0.98;;;26.90;49.10;;;;;;5082759;28;20048;-82
2022/07/03 13:02:41;;;;;;;3.13;1.10;;;26.10;51.40;;;;;;5079288;28;20075;-81
2022/07/03 13:05:20;;;;;;;1.73;1.10;;;25.70;51.80;;;;;;5056372;28;20132;-81
2022/07/03 13:07:48;;;;;;;4.15;1.10;;;25.50;54.20;;;;;;5070063;28;20504;-81
2022/07/03 13:10:16;;;;;;;2.17;1.30;;;25.40;54.20;;;;;;5076708;28;20036;-81
2022/07/03 13:12:56;;;;;;;3.97;1.15;;;25.80;55.40;;;;;;5073371;28;20519;-81
2022/07/03 13:15:29;;;;;;;2.60;1.40;;;26.80;55.20;;;;;;5066055;28;20039;-82
2022/07/03 13:17:55;;;;;;;1.30;1.20;;;27.80;55.70;;;;;;5085789;28;20033;-84
2022/07/03 13:20:30;;;;;;;3.42;1.23;;;28.50;53.40;;;;;;5084266;28;20032;-80
2022/07/03 13:22:59;;;;;;;1.98;1.20;;;28.80;51.40;;;;;;5086780;28;20036;-81
2022/07/03 13:25:25;;;;;;;1.50;1.10;;;29.00;50.80;;;;;;5078269;28;20036;-81
2022/07/03 13:27:51;;;;;;;1.67;1.00;;;28.70;50.10;;;;;;5072801;28;20028;-81
2022/07/03 13:30:18;;;;;;;2.28;1.15;;;28.40;50.20;;;;;;5063296;28;20386;-82
2022/07/03 13:32:45;;;;;;;2.90;1.17;;;28.00;49.90;;;;;;5089340;28;20057;-81
2022/07/03 13:35:11;;;;;;;1.67;1.30;;;27.60;50.40;;;;;;5091120;28;20032;-79
2022/07/03 13:37:37;;;;;;;2.28;0.77;;;27.30;50.60;;;;;;5092330;28;20073;-81
2022/07/03 13:40:04;;;;;;;2.63;1.20;;;27.00;51.90;;;;;;5069632;28;20043;-80
2022/07/03 13:42:30;;;;;;;3.83;0.95;;;26.60;51.50;;;;;;5076935;28;20040;-80
2022/07/03 13:44:56;;;;;;;4.40;1.20;;;25.80;52.50;;;;;;5082628;28;20442;-81
2022/07/03 13:47:22;;;;;;;8.65;2.22;;;24.80;58.90;;;;;;5090426;28;20040;-79
2022/07/03 13:49:48;;;;;;;7.53;2.20;;;23.90;78.30;;;;;;5079207;28;20063;-79
2022/07/03 13:52:13;;;;;;;7.60;2.08;;;23.00;98.20;;;;;;5084990;28;20533;-79
2022/07/03 13:54:39;;;;;;;4.68;1.70;;;21.90;99.90;;;;;;5086291;28;20083;-79
2022/07/03 13:57:05;;;;;;;3.00;1.63;;;21.30;99.90;;;;;;5073700;28;20037;-80
2022/07/03 13:59:31;;;;;;;2.78;1.65;;;20.70;99.90;;;;;;5080906;28;20036;-78
2022/07/03 14:02:00;;;;;;;9.02;6.35;;;20.40;99.90;;;;;;5085061;28;20036;-79
2022/07/03 14:04:26;;;;;;;38.50;35.65;;;20.30;99.90;;;;;;5067370;28;20040;-79
2022/07/03 14:06:53;;;;;;;24.10;22.23;;;20.20;99.90;;;;;;5087094;28;20047;-80
2022/07/03 14:09:19;;;;;;;9.77;9.07;;;20.30;99.90;;;;;;5085169;28;20032;-82
2022/07/03 14:11:45;;;;;;;5.82;5.18;;;20.20;99.90;;;;;;5064651;28;20100;-79
2022/07/03 14:14:10;;;;;;;3.00;2.60;;;20.10;99.90;;;;;;5081530;28;20046;-79
2022/07/03 14:16:37;;;;;;;13.45;12.18;;;20.20;99.90;;;;;;5065374;28;20381;-79
2022/07/03 14:19:05;;;;;;;20.77;18.80;;;20.90;99.90;;;;;;5077998;28;20031;-81
2022/07/03 14:21:31;;;;;;;9.60;8.43;;;21.30;99.90;;;;;;5078139;28;20121;-82
2022/07/03 14:23:57;;;;;;;4.10;3.70;;;21.80;99.90;;;;;;5079089;28;20044;-79
2022/07/03 14:34:46;;;;;;;2.50;2.30;;;25.20;99.90;;;;;;5082474;28;20040;-81
2022/07/03 14:37:12;;;;;;;3.03;2.70;;;25.30;99.90;;;;;;5078432;28;20413;-81
2022/07/03 14:39:37;;;;;;;2.75;1.85;;;25.50;99.90;;;;;;5078265;28;20129;-80
2022/07/03 14:42:03;;;;;;;3.53;2.42;;;25.90;99.90;;;;;;5080901;28;20043;-81
2022/07/03 14:44:30;;;;;;;2.45;1.60;;;26.00;99.90;;;;;;5088013;28;20113;-80
2022/07/03 14:46:55;;;;;;;2.15;1.30;;;26.10;99.90;;;;;;5089938;28;20036;-80
2022/07/03 14:49:21;;;;;;;1.70;1.58;;;26.10;98.50;;;;;;5061961;28;20086;-81
2022/07/03 14:51:47;;;;;;;1.50;1.40;;;26.60;99.90;;;;;;5090590;28;20028;-81
2022/07/03 14:54:18;;;;;;;1.88;1.23;;;27.00;96.70;;;;;;5078892;28;20036;-80
2022/07/03 14:56:52;;;;;;;4.85;4.45;;;27.50;92.80;;;;;;5080073;28;20036;-85
2022/07/03 14:59:31;;;;;;;2.38;2.17;;;27.90;90.20;;;;;;5077758;28;20071;-82
2022/07/03 15:01:58;;;;;;;1.83;1.73;;;28.20;76.70;;;;;;5089365;28;20503;-82
2022/07/03 15:04:40;;;;;;;1.80;1.60;;;28.10;70.40;;;;;;5082674;28;20048;-81
2022/07/03 15:07:06;;;;;;;4.30;4.00;;;28.00;67.50;;;;;;5064465;28;20474;-82
2022/07/03 15:09:37;;;;;;;2.20;1.27;;;28.10;72.90;;;;;;5064886;28;20062;-83
2022/07/03 15:14:52;;;;;;;3.33;3.05;;;26.80;74.30;;;;;;5081833;28;20036;-81
2022/07/03 15:17:20;;;;;;;4.70;2.53;;;26.00;84.10;;;;;;5089636;28;20043;-81
2022/07/03 15:19:48;;;;;;;2.80;2.13;;;26.10;90.40;;;;;;5079529;28;20040;-80
2022/07/03 15:22:15;;;;;;;3.70;3.35;;;26.50;90.00;;;;;;5088370;28;20399;-81
2022/07/03 15:24:41;;;;;;;3.35;3.05;;;27.10;89.10;;;;;;5066979;28;20043;-81
2022/07/03 15:27:09;;;;;;;3.17;2.35;;;27.80;81.10;;;;;;5091028;28;20174;-81
2022/07/03 15:29:36;;;;;;;3.75;3.30;;;27.40;80.00;;;;;;5082293;28;20119;-84
2022/07/03 15:32:04;;;;;;;3.20;1.92;;;27.00;82.30;;;;;;5082951;28;20128;-81
2022/07/03 15:34:30;;;;;;;3.42;1.90;;;26.30;80.70;;;;;;5089383;28;20127;-80
2022/07/03 15:37:28;;;;;;;2.20;2.00;;;26.20;86.70;;;;;;5092912;28;20072;-82
2022/07/03 15:40:01;;;;;;;2.70;1.50;;;26.80;88.40;;;;;;5093403;28;20408;-81
2022/07/03 15:42:33;;;;;;;2.20;1.67;;;27.60;90.60;;;;;;5092934;28;20048;-81
2022/07/03 15:45:33;;;;;;;2.00;1.80;;;28.60;86.80;;;;;;5091062;28;20109;-81
2022/07/03 15:48:18;;;;;;;3.75;1.73;;;28.80;77.10;;;;;;5068861;28;20119;-81
2022/07/03 15:54:21;;;;;;;1.85;1.48;;;28.60;66.00;;;;;;5076289;28;20059;-81
2022/07/03 15:56:58;;;;;;;2.08;1.23;;;29.10;67.50;;;;;;5078313;28;20036;-81
2022/07/03 15:59:29;;;;;;;1.63;1.20;;;28.90;62.80;;;;;;5091837;28;20040;-82
2022/07/03 16:02:14;;;;;;;1.88;1.13;;;28.60;60.00;;;;;;5086128;28;20047;-81
2022/07/03 16:04:52;;;;;;;1.35;1.00;;;28.60;63.70;;;;;;5095231;28;20036;-81
2022/07/03 16:07:18;;;;;;;0.88;0.85;;;28.60;59.50;;;;;;5070166;28;20032;-81
2022/07/03 16:09:45;;;;;;;2.33;1.10;;;29.00;60.60;;;;;;5075700;28;20043;-82
2022/07/03 16:12:22;;;;;;;0.70;0.70;;;29.00;60.60;;;;;;5093413;28;20032;-81
2022/07/03 16:14:48;;;;;;;0.90;0.68;;;29.30;59.00;;;;;;5082574;28;20439;-81
2022/07/03 16:17:17;;;;;;;1.60;0.98;;;29.60;58.20;;;;;;5095910;28;20518;-81
2022/07/03 16:19:45;;;;;;;1.52;1.10;;;29.70;55.30;;;;;;5098691;28;20643;-82
2022/07/03 16:22:12;;;;;;;1.70;1.10;;;29.60;54.90;;;;;;5107728;28;20024;-80
2022/07/03 16:24:38;;;;;;;1.58;0.95;;;29.30;54.40;;;;;;5107648;28;20059;-79
2022/07/03 16:27:04;;;;;;;2.08;1.38;;;28.00;55.90;;;;;;5116276;28;20031;-80
2022/07/03 16:29:30;;;;;;;2.03;1.60;;;26.80;58.80;;;;;;5097492;28;20136;-80
2022/07/03 16:32:02;;;;;;;1.88;1.30;;;25.80;63.90;;;;;;5088167;28;20048;-81
2022/07/03 16:35:03;;;;;;;3.97;3.78;;;25.10;70.70;;;;;;5080231;28;20032;-79
2022/07/03 16:37:54;;;;;;;3.30;2.47;;;24.40;78.50;;;;;;5067655;28;20533;-80
2022/07/03 16:40:22;;;;;;;2.28;2.08;;;24.00;82.80;;;;;;5088657;28;20032;-80
2022/07/03 16:42:49;;;;;;;2.15;1.40;;;23.70;86.50;;;;;;5091528;28;20047;-80
2022/07/03 16:45:16;;;;;;;1.42;1.15;;;23.60;91.00;;;;;;5083315;28;20044;-81
2022/07/03 16:47:45;;;;;;;2.25;1.25;;;23.50;91.00;;;;;;5091922;28;20043;-81
2022/07/03 16:50:15;;;;;;;1.30;1.20;;;23.30;91.50;;;;;;5098743;28;20040;-82
2022/07/03 16:52:46;;;;;;;1.40;1.00;;;23.20;92.70;;;;;;5094829;28;20074;-82
2022/07/03 16:55:13;;;;;;;2.05;1.00;;;23.90;89.70;;;;;;5089147;28;20024;-82
2022/07/03 16:57:54;;;;;;;1.25;1.15;;;24.80;80.70;;;;;;5095133;28;20564;-82
2022/07/03 17:00:25;;;;;;;1.77;1.20;;;24.80;78.60;;;;;;5079552;28;20130;-83
2022/07/03 17:02:52;;;;;;;1.33;1.10;;;24.90;78.10;;;;;;5094425;28;20051;-82
2022/07/03 17:05:23;;;;;;;1.10;1.00;;;25.00;74.10;;;;;;5096025;28;20047;-82
2022/07/03 17:07:52;;;;;;;1.23;0.93;;;24.80;72.30;;;;;;5091057;28;20044;-84
2022/07/03 17:10:20;;;;;;;1.15;0.88;;;24.10;76.40;;;;;;5091906;28;20055;-83
2022/07/03 17:12:55;;;;;;;1.67;1.20;;;23.60;80.20;;;;;;5086855;28;20044;-87
2022/07/03 17:15:25;;;;;;;1.50;1.00;;;23.30;83.10;;;;;;5088602;28;20496;-81
2022/07/03 17:18:00;;;;;;;1.10;1.00;;;23.10;86.50;;;;;;5097058;28;20035;-82
2022/07/03 17:20:29;;;;;;;2.28;1.30;;;22.70;90.00;;;;;;5084526;28;20071;-82
2022/07/03 17:23:10;;;;;;;1.55;1.20;;;22.20;93.30;;;;;;5065543;28;20037;-82
2022/07/03 17:25:40;;;;;;;1.52;1.13;;;21.80;96.00;;;;;;5086944;28;20093;-81
2022/07/03 17:28:05;;;;;;;1.48;1.20;;;21.60;99.10;;;;;;5094197;28;20054;-82
2022/07/03 17:30:43;;;;;;;1.83;1.20;;;21.40;99.90;;;;;;5090051;28;20091;-82
2022/07/03 17:33:13;;;;;;;1.05;0.95;;;21.20;99.90;;;;;;5073251;28;20039;-82
2022/07/03 17:35:41;;;;;;;1.48;1.30;;;21.00;99.90;;;;;;5069197;28;20044;-85
2022/07/03 17:38:12;;;;;;;1.30;1.20;;;20.90;99.90;;;;;;5069825;28;20527;-82
2022/07/03 17:40:40;;;;;;;3.25;1.38;;;20.80;99.90;;;;;;5082269;28;20047;-83
2022/07/03 17:43:07;;;;;;;2.67;1.40;;;20.80;99.90;;;;;;5093223;28;20115;-82
2022/07/03 17:45:34;;;;;;;1.90;1.30;;;20.80;99.90;;;;;;5085129;28;20111;-83
2022/07/03 17:48:02;;;;;;;3.00;1.70;;;20.60;99.90;;;;;;5094488;28;20419;-83
2022/07/03 17:50:29;;;;;;;2.65;1.50;;;20.60;99.90;;;;;;5075294;28;20048;-82
2022/07/03 17:52:56;;;;;;;1.45;1.35;;;20.40;99.90;;;;;;5081141;28;20044;-83
2022/07/03 17:55:29;;;;;;;2.15;1.42;;;20.40;99.90;;;;;;5091237;28;20036;-87
2022/07/03 17:57:55;;;;;;;1.73;1.42;;;20.30;99.90;;;;;;5083272;28;20040;-82
2022/07/03 18:00:25;;;;;;;1.85;1.58;;;20.30;99.90;;;;;;5082426;28;20044;-81
2022/07/03 18:02:53;;;;;;;1.70;1.50;;;20.30;99.90;;;;;;5082660;28;20045;-81
2022/07/03 18:05:22;;;;;;;1.80;1.52;;;20.40;99.90;;;;;;5089081;28;20032;-83
2022/07/03 18:08:09;;;;;;;1.50;1.27;;;20.50;99.90;;;;;;5084454;28;20037;-84
2022/07/03 18:10:43;;;;;;;2.78;1.55;;;20.50;99.90;;;;;;5080260;28;20040;-81
2022/07/03 18:13:09;;;;;;;2.30;2.10;;;20.50;99.90;;;;;;5088886;28;20036;-83
2022/07/03 18:15:42;;;;;;;2.50;1.60;;;20.40;99.90;;;;;;5088189;28;20120;-85
2022/07/03 18:18:22;;;;;;;;;;;20.30;99.90;;;;;;5075593;28;20040;-82
2022/07/03 18:20:48;;;;;;;1.70;1.42;;;20.20;99.90;;;;;;5081679;28;19916;-83
2022/07/03 18:23:18;;;;;;;4.45;1.83;;;20.10;99.90;;;;;;5076128;28;20033;-83
2022/07/03 18:25:51;;;;;;;1.70;1.60;;;20.10;99.90;;;;;;5064238;28;20085;-84
2022/07/03 18:28:17;;;;;;;3.47;1.67;;;20.00;99.90;;;;;;5067186;28;20052;-81
2022/07/03 18:30:44;;;;;;;4.97;2.40;;;20.00;99.90;;;;;;5082169;28;20043;-83
2022/07/03 18:33:11;;;;;;;1.73;1.60;;;20.00;99.90;;;;;;5075582;28;20124;-83
2022/07/03 18:35:39;;;;;;;1.95;1.50;;;19.90;99.90;;;;;;5082083;28;20040;-81
2022/07/03 18:38:10;;;;;;;2.90;1.75;;;19.90;99.90;;;;;;5058011;28;20059;-81
2022/07/03 18:40:36;;;;;;;1.95;1.73;;;19.90;99.90;;;;;;5081793;28;20162;-81
2022/07/03 18:43:02;;;;;;;2.17;1.63;;;19.80;99.90;;;;;;5064771;28;20067;-80
2022/07/03 18:45:28;;;;;;;1.88;1.70;;;19.70;99.90;;;;;;5079194;28;20040;-81
2022/07/03 18:47:55;;;;;;;2.00;1.70;;;19.70;99.90;;;;;;5080828;28;20047;-82
2022/07/03 18:50:21;;;;;;;1.80;1.70;;;19.60;99.90;;;;;;5085685;28;20115;-83
2022/07/03 18:53:55;;;;;;;3.30;1.83;;;19.60;99.90;;;;;;5071415;28;20147;-82
2022/07/03 18:56:55;;;;;;;3.97;3.47;;;19.60;99.90;;;;;;5030662;28;20386;-83
2022/07/03 18:59:39;;;;;;;3.47;2.30;;;19.50;99.90;;;;;;5012497;28;20099;-83
2022/07/03 19:02:15;;;;;;;23.25;3.90;;;19.50;99.90;;;;;;5072412;28;20048;-83
2022/07/03 19:04:50;;;;;;;3.63;2.28;;;19.40;99.90;;;;;;5089334;28;20066;-85
2022/07/03 19:07:45;;;;;;;3.13;2.10;;;19.40;99.90;;;;;;5064175;28;20074;-83
2022/07/03 19:10:12;;;;;;;2.55;2.35;;;19.30;99.90;;;;;;5064430;28;20090;-85
2022/07/03 19:13:07;;;;;;;2.75;2.40;;;19.20;99.90;;;;;;5061212;28;20029;-83
2022/07/03 19:15:44;;;;;;;2.83;2.10;;;19.10;99.90;;;;;;5063815;28;20055;-83
2022/07/03 19:18:09;;;;;;;2.33;1.80;;;19.10;99.90;;;;;;5079757;28;20044;-83
2022/07/03 19:20:36;;;;;;;1.85;1.67;;;18.90;99.90;;;;;;5083312;28;20381;-85
2022/07/03 19:23:02;;;;;;;3.88;2.20;;;18.80;99.90;;;;;;5080280;28;20111;-83
2022/07/03 19:25:28;;;;;;;3.53;2.17;;;18.80;99.90;;;;;;5075988;28;20115;-82
2022/07/03 19:27:57;;;;;;;3.95;2.30;;;18.70;99.90;;;;;;5067607;28;20055;-85
2022/07/03 19:30:26;;;;;;;3.08;2.78;;;18.70;99.90;;;;;;5068501;28;20364;-85
2022/07/03 19:32:53;;;;;;;2.40;2.20;;;18.60;99.90;;;;;;5076142;28;20504;-85
2022/07/03 19:35:19;;;;;;;3.00;2.17;;;18.60;99.90;;;;;;5069053;28;20048;-87
2022/07/03 19:37:45;;;;;;;2.50;2.10;;;18.50;99.90;;;;;;5071777;28;20028;-83
2022/07/03 19:40:12;;;;;;;4.57;2.50;;;18.50;99.90;;;;;;5071264;28;20487;-83
2022/07/03 19:42:39;;;;;;;2.33;2.13;;;18.40;99.90;;;;;;5077016;28;20131;-82
2022/07/03 19:45:06;;;;;;;4.22;3.85;;;18.50;99.90;;;;;;5075065;28;20510;-84
2022/07/03 19:47:32;;;;;;;2.67;2.47;;;18.50;99.90;;;;;;5072167;28;20099;-83
2022/07/03 19:49:58;;;;;;;3.38;3.03;;;18.40;99.90;;;;;;5074213;28;20056;-83
2022/07/03 19:52:24;;;;;;;3.00;2.70;;;18.40;99.90;;;;;;5063417;28;20089;-84
2022/07/03 19:54:50;;;;;;;3.35;2.10;;;18.30;99.90;;;;;;5063126;28;20095;-83
2022/07/03 19:57:16;;;;;;;3.78;2.60;;;18.20;99.90;;;;;;5061988;28;20078;-84
2022/07/03 19:59:41;;;;;;;2.88;2.58;;;18.20;99.90;;;;;;5075686;28;20049;-84
2022/07/03 20:02:08;;;;;;;3.58;2.50;;;18.10;99.90;;;;;;5068216;28;20043;-84
2022/07/03 20:04:33;;;;;;;4.95;4.55;;;18.00;99.90;;;;;;5063875;28;21602;-83
2022/07/03 20:06:59;;;;;;;2.83;2.53;;;18.00;99.90;;;;;;5069336;28;20208;-84
2022/07/03 20:09:25;;;;;;;3.97;2.70;;;17.90;99.90;;;;;;5090790;28;20110;-84
2022/07/03 20:11:54;;;;;;;2.97;2.72;;;17.90;99.90;;;;;;5086796;28;20115;-83
2022/07/03 20:14:20;;;;;;;3.03;2.75;;;17.80;99.90;;;;;;5090029;28;20037;-84
2022/07/03 20:16:50;;;;;;;2.83;2.60;;;17.80;99.90;;;;;;5081737;28;20442;-84
2022/07/03 20:19:16;;;;;;;3.28;2.47;;;17.70;99.90;;;;;;5088152;28;20071;-83
2022/07/03 20:21:42;;;;;;;3.80;2.80;;;17.70;99.90;;;;;;5084891;28;20090;-84
2022/07/03 20:27:09;;;;;;;3.70;2.78;;;17.60;99.90;;;;;;5044061;28;20408;-84
2022/07/03 20:29:41;;;;;;;3.78;3.22;;;17.60;99.90;;;;;;5062809;28;20045;-83
2022/07/03 20:32:09;;;;;;;5.28;3.63;;;17.60;99.90;;;;;;5068180;28;20036;-83
2022/07/03 20:34:36;;;;;;;4.05;3.58;;;17.60;99.90;;;;;;5071658;28;20123;-84
2022/07/03 20:37:03;;;;;;;4.80;3.28;;;17.60;99.90;;;;;;5065640;28;20064;-84
2022/07/03 20:39:30;;;;;;;4.20;3.80;;;17.50;99.90;;;;;;5081630;28;20028;-83
2022/07/03 20:41:58;;;;;;;5.80;3.88;;;17.40;99.90;;;;;;5083429;28;20037;-84